createdAt,value
2018-07-17T00:01:35.341Z,996.63
2018-07-17T00:02:35.340Z,996.63
2018-07-17T00:04:29.776Z,996.64
2018-07-17T00:05:29.721Z,996.64
2018-07-17T00:07:24.093Z,996.64
2018-07-17T00:08:24.092Z,996.66
2018-07-17T00:10:18.587Z,996.64
2018-07-17T00:11:18.479Z,996.64
2018-07-17T00:13:12.859Z,996.66
2018-07-17T00:14:12.857Z,996.70
2018-07-17T00:16:07.362Z,996.66
2018-07-17T00:17:07.244Z,996.66
2018-07-17T00:19:01.635Z,996.68
2018-07-17T00:20:01.634Z,996.67
2018-07-17T00:21:56.174Z,996.70
2018-07-17T00:22:56.018Z,996.70
2018-07-17T00:24:50.389Z,996.69
2018-07-17T00:25:50.388Z,996.69
2018-07-17T00:27:44.865Z,996.68
2018-07-17T00:28:44.759Z,996.65
2018-07-17T00:30:39.183Z,996.64
2018-07-17T00:31:39.151Z,996.67
2018-07-17T00:33:33.727Z,996.66
2018-07-17T00:34:33.514Z,996.64
2018-07-17T00:36:27.897Z,996.63
2018-07-17T00:37:27.894Z,996.65
2018-07-17T00:39:22.427Z,996.63
2018-07-17T00:40:22.278Z,996.63
2018-07-17T00:42:16.657Z,996.61
2018-07-17T00:43:16.690Z,996.63
2018-07-17T00:45:11.137Z,996.68
2018-07-17T00:46:11.032Z,996.65
2018-07-17T00:48:05.981Z,996.65
2018-07-17T00:49:05.410Z,996.66
2018-07-17T00:50:59.861Z,996.67
2018-07-17T00:51:59.790Z,996.70
2018-07-17T00:53:54.180Z,996.71
2018-07-17T00:54:55.280Z,996.72
2018-07-17T00:56:48.765Z,996.69
2018-07-17T00:57:48.566Z,996.72
2018-07-17T00:59:42.947Z,996.70
2018-07-17T01:00:42.943Z,996.71
2018-07-17T01:02:37.375Z,996.69
2018-07-17T01:03:37.336Z,996.68
2018-07-17T01:05:31.702Z,996.67
2018-07-17T01:06:31.702Z,996.71
2018-07-17T01:08:26.296Z,996.72
2018-07-17T01:09:26.434Z,996.71
2018-07-17T01:11:20.517Z,996.74
2018-07-17T01:12:20.467Z,996.78
2018-07-17T01:14:14.995Z,996.75
2018-07-17T01:15:14.853Z,996.75
2018-07-17T01:17:09.222Z,996.75
2018-07-17T01:18:09.221Z,996.75
2018-07-17T01:20:03.948Z,996.73
2018-07-17T01:21:03.591Z,996.76
2018-07-17T01:22:57.973Z,996.71
2018-07-17T01:23:57.968Z,996.73
2018-07-17T01:25:52.502Z,996.73
2018-07-17T01:26:52.365Z,996.74
2018-07-17T01:28:46.802Z,996.72
2018-07-17T01:29:46.789Z,996.72
2018-07-17T01:31:41.226Z,996.71
2018-07-17T01:32:41.112Z,996.70
2018-07-17T01:34:35.495Z,996.70
2018-07-17T01:35:35.505Z,996.69
2018-07-17T01:37:29.930Z,996.66
2018-07-17T01:38:29.878Z,996.65
2018-07-17T01:40:24.253Z,996.60
2018-07-17T01:41:24.247Z,996.57
2018-07-17T01:43:18.879Z,996.58
2018-07-17T01:44:18.625Z,996.57
2018-07-17T01:46:12.996Z,996.55
2018-07-17T01:47:12.994Z,996.54
2018-07-17T01:49:07.529Z,996.50
2018-07-17T01:50:07.376Z,996.52
2018-07-17T01:52:01.763Z,996.48
2018-07-17T01:53:01.758Z,996.45
2018-07-17T01:54:56.279Z,996.51
2018-07-17T01:55:56.136Z,996.51
2018-07-17T01:57:50.517Z,996.54
2018-07-17T01:58:50.516Z,996.52
2018-07-17T02:00:45.061Z,996.54
2018-07-17T02:01:44.899Z,996.54
2018-07-17T02:03:39.279Z,996.53
2018-07-17T02:04:39.284Z,996.60
2018-07-17T02:06:33.783Z,996.56
2018-07-17T02:07:33.658Z,996.59
2018-07-17T02:09:28.028Z,996.60
2018-07-17T02:10:28.027Z,996.63
2018-07-17T02:12:22.516Z,996.59
2018-07-17T02:13:22.405Z,996.60
2018-07-17T02:15:16.797Z,996.61
2018-07-17T02:16:16.795Z,996.60
2018-07-17T02:18:11.290Z,996.59
2018-07-17T02:19:11.175Z,996.55
2018-07-17T02:21:05.552Z,996.56
2018-07-17T02:22:05.547Z,996.54
2018-07-17T02:24:00.081Z,996.55
2018-07-17T02:24:59.926Z,996.53
2018-07-17T02:26:54.310Z,996.55
2018-07-17T02:27:54.305Z,996.59
2018-07-17T02:29:48.742Z,996.59
2018-07-17T02:30:48.687Z,996.58
2018-07-17T02:32:43.067Z,996.58
2018-07-17T02:33:43.065Z,996.56
2018-07-17T02:35:42.590Z,996.55
2018-07-17T02:36:42.449Z,996.55
2018-07-17T02:38:37.391Z,996.55
2018-07-17T02:39:36.824Z,996.58
2018-07-17T02:41:31.265Z,996.52
2018-07-17T02:42:31.205Z,996.54
2018-07-17T02:44:25.589Z,996.57
2018-07-17T02:45:25.586Z,996.54
2018-07-17T02:47:20.102Z,996.56
2018-07-17T02:48:19.964Z,996.59
2018-07-17T02:50:14.348Z,996.59
2018-07-17T02:51:14.341Z,996.63
2018-07-17T02:53:08.856Z,996.60
2018-07-17T02:54:08.712Z,996.62
2018-07-17T02:56:03.659Z,996.65
2018-07-17T02:57:03.099Z,996.67
2018-07-17T02:58:57.638Z,996.66
2018-07-17T02:59:57.466Z,996.68
2018-07-17T03:01:51.846Z,996.71
2018-07-17T03:02:51.846Z,996.68
2018-07-17T03:04:46.378Z,996.70
2018-07-17T03:05:46.264Z,996.71
2018-07-17T03:07:40.623Z,996.74
2018-07-17T03:08:40.608Z,996.76
2018-07-17T03:10:35.051Z,996.77
2018-07-17T03:11:34.983Z,996.77
2018-07-17T03:13:29.401Z,996.75
2018-07-17T03:14:29.401Z,996.77
2018-07-17T03:16:24.567Z,996.78
2018-07-17T03:17:23.783Z,996.79
2018-07-17T03:19:18.184Z,996.76
2018-07-17T03:20:18.151Z,996.74
2018-07-17T03:22:12.588Z,996.78
2018-07-17T03:23:12.530Z,996.76
2018-07-17T03:25:06.910Z,996.78
2018-07-17T03:26:06.907Z,996.81
2018-07-17T03:28:01.355Z,996.81
2018-07-17T03:29:01.287Z,996.79
2018-07-17T03:30:55.670Z,996.81
2018-07-17T03:31:55.670Z,996.78
2018-07-17T03:33:50.159Z,996.78
2018-07-17T03:34:50.046Z,996.78
2018-07-17T03:36:44.430Z,996.78
2018-07-17T03:37:44.426Z,996.81
2018-07-17T03:39:43.350Z,996.78
2018-07-17T03:40:43.234Z,996.78
2018-07-17T03:42:37.613Z,996.80
2018-07-17T03:43:37.605Z,996.77
2018-07-17T03:45:32.054Z,996.84
2018-07-17T03:46:31.983Z,996.80
2018-07-17T03:48:26.364Z,996.82
2018-07-17T03:49:26.365Z,996.87
2018-07-17T03:51:20.799Z,996.87
2018-07-17T03:52:20.740Z,996.91
2018-07-17T03:54:15.122Z,996.89
2018-07-17T03:55:15.120Z,996.91
2018-07-17T03:57:09.631Z,996.93
2018-07-17T03:58:09.486Z,996.90
2018-07-17T04:00:03.874Z,996.93
2018-07-17T04:01:03.872Z,996.92
2018-07-17T04:02:58.498Z,996.91
2018-07-17T04:03:58.252Z,996.93
2018-07-17T04:05:52.633Z,996.93
2018-07-17T04:06:52.628Z,996.92
2018-07-17T04:08:47.170Z,996.97
2018-07-17T04:09:47.084Z,996.98
2018-07-17T04:11:41.406Z,996.98
2018-07-17T04:12:41.405Z,997.00
2018-07-17T04:14:35.955Z,996.99
2018-07-17T04:15:35.886Z,996.98
2018-07-17T04:17:30.177Z,996.97
2018-07-17T04:18:30.174Z,996.94
2018-07-17T04:20:24.861Z,996.90
2018-07-17T04:21:24.556Z,996.92
2018-07-17T04:23:18.943Z,996.92
2018-07-17T04:24:18.938Z,996.87
2018-07-17T04:26:13.363Z,996.90
2018-07-17T04:27:13.310Z,996.89
2018-07-17T04:29:07.708Z,996.93
2018-07-17T04:30:07.699Z,996.98
2018-07-17T04:32:02.238Z,996.95
2018-07-17T04:33:02.088Z,996.94
2018-07-17T04:34:56.462Z,996.98
2018-07-17T04:35:56.458Z,996.97
2018-07-17T04:37:50.905Z,996.98
2018-07-17T04:38:50.840Z,997.02
2018-07-17T04:40:45.218Z,997.03
2018-07-17T04:41:45.282Z,997.05
2018-07-17T04:43:39.798Z,997.08
2018-07-17T04:44:39.597Z,997.12
2018-07-17T04:46:33.977Z,997.14
2018-07-17T04:47:33.983Z,997.13
2018-07-17T04:49:28.416Z,997.17
2018-07-17T04:50:28.354Z,997.15
2018-07-17T04:52:22.736Z,997.19
2018-07-17T04:53:22.734Z,997.20
2018-07-17T04:55:17.251Z,997.22
2018-07-17T04:56:17.114Z,997.24
2018-07-17T04:58:11.492Z,997.18
2018-07-17T04:59:11.492Z,997.21
2018-07-17T05:01:05.934Z,997.22
2018-07-17T05:02:05.873Z,997.22
2018-07-17T05:04:00.246Z,997.23
2018-07-17T05:05:00.241Z,997.25
2018-07-17T05:06:54.742Z,997.25
2018-07-17T05:07:54.609Z,997.22
2018-07-17T05:09:49.892Z,997.23
2018-07-17T05:10:49.901Z,997.21
2018-07-17T05:12:44.433Z,997.18
2018-07-17T05:13:44.272Z,997.16
2018-07-17T05:15:38.726Z,997.22
2018-07-17T05:16:38.653Z,997.20
2018-07-17T05:18:33.096Z,997.23
2018-07-17T05:19:33.036Z,997.24
2018-07-17T05:21:27.413Z,997.28
2018-07-17T05:22:27.415Z,997.22
2018-07-17T05:24:21.848Z,997.24
2018-07-17T05:25:21.822Z,997.22
2018-07-17T05:27:16.172Z,997.30
2018-07-17T05:28:16.170Z,997.32
2018-07-17T05:30:10.692Z,997.27
2018-07-17T05:31:10.554Z,997.28
2018-07-17T05:33:04.946Z,997.31
2018-07-17T05:34:04.940Z,997.33
2018-07-17T05:35:59.398Z,997.32
2018-07-17T05:36:59.339Z,997.32
2018-07-17T05:38:53.726Z,997.29
2018-07-17T05:39:53.730Z,997.32
2018-07-17T05:41:48.151Z,997.29
2018-07-17T05:42:48.101Z,997.32
2018-07-17T05:44:42.485Z,997.26
2018-07-17T05:45:42.496Z,997.30
2018-07-17T05:47:37.026Z,997.28
2018-07-17T05:48:36.878Z,997.29
2018-07-17T05:50:31.277Z,997.28
2018-07-17T05:51:31.260Z,997.30
2018-07-17T05:53:25.776Z,997.29
2018-07-17T05:54:25.650Z,997.32
2018-07-17T05:56:20.041Z,997.31
2018-07-17T05:57:20.031Z,997.35
2018-07-17T05:59:14.472Z,997.35
2018-07-17T06:00:14.416Z,997.34
2018-07-17T06:02:08.802Z,997.30
2018-07-17T06:03:08.804Z,997.29
2018-07-17T06:05:02.470Z,997.32
2018-07-17T06:06:02.210Z,997.31
2018-07-17T06:07:56.596Z,997.29
2018-07-17T06:08:56.603Z,997.28
2018-07-17T06:10:51.050Z,997.28
2018-07-17T06:11:50.986Z,997.26
2018-07-17T06:13:45.390Z,997.30
2018-07-17T06:14:45.374Z,997.27
2018-07-17T06:16:39.816Z,997.29
2018-07-17T06:17:39.763Z,997.29
2018-07-17T06:19:34.148Z,997.34
2018-07-17T06:20:34.149Z,997.32
2018-07-17T06:22:28.619Z,997.36
2018-07-17T06:23:28.560Z,997.34
2018-07-17T06:25:23.011Z,997.35
2018-07-17T06:26:23.022Z,997.32
2018-07-17T06:28:17.614Z,997.32
2018-07-17T06:29:17.385Z,997.34
2018-07-17T06:31:11.778Z,997.36
2018-07-17T06:32:11.779Z,997.36
2018-07-17T06:34:06.900Z,997.34
2018-07-17T06:35:06.159Z,997.32
2018-07-17T06:37:00.546Z,997.33
2018-07-17T06:38:00.544Z,997.29
2018-07-17T06:39:55.095Z,997.28
2018-07-17T06:40:54.928Z,997.26
2018-07-17T06:42:49.381Z,997.25
2018-07-17T06:43:49.315Z,997.26
2018-07-17T06:45:42.977Z,997.22
2018-07-17T06:46:42.963Z,997.26
2018-07-17T06:48:37.242Z,997.23
2018-07-17T06:49:37.242Z,997.27
2018-07-17T06:51:31.701Z,997.23
2018-07-17T06:52:31.639Z,997.22
2018-07-17T06:54:26.736Z,997.22
2018-07-17T06:55:26.154Z,997.28
2018-07-17T06:57:20.702Z,997.26
2018-07-17T06:58:20.464Z,997.26
2018-07-17T07:00:14.855Z,997.25
2018-07-17T07:01:14.855Z,997.25
2018-07-17T07:03:09.352Z,997.25
2018-07-17T07:04:09.236Z,997.23
2018-07-17T07:06:03.641Z,997.21
2018-07-17T07:07:03.643Z,997.17
2018-07-17T07:08:58.207Z,997.15
2018-07-17T07:09:58.020Z,997.15
2018-07-17T07:11:52.413Z,997.16
2018-07-17T07:12:52.413Z,997.15
2018-07-17T07:14:47.015Z,997.14
2018-07-17T07:15:46.795Z,997.13
2018-07-17T07:17:41.181Z,997.15
2018-07-17T07:18:41.183Z,997.13
2018-07-17T07:20:35.758Z,997.09
2018-07-17T07:21:35.570Z,997.07
2018-07-17T07:23:29.954Z,997.07
2018-07-17T07:24:29.957Z,997.06
2018-07-17T07:26:29.277Z,997.03
2018-07-17T07:27:29.139Z,996.98
2018-07-17T07:29:23.570Z,996.94
2018-07-17T07:30:23.527Z,996.93
2018-07-17T07:32:17.984Z,996.92
2018-07-17T07:33:17.918Z,996.91
2018-07-17T07:35:12.307Z,996.91
2018-07-17T07:36:12.304Z,996.89
2018-07-17T07:38:06.759Z,996.91
2018-07-17T07:39:06.692Z,996.90
2018-07-17T07:41:01.094Z,996.90
2018-07-17T07:42:01.083Z,996.92
2018-07-17T07:43:55.534Z,996.90
2018-07-17T07:44:55.471Z,996.86
2018-07-17T07:46:49.924Z,996.85
2018-07-17T07:47:49.872Z,996.81
2018-07-17T07:49:44.367Z,996.81
2018-07-17T07:50:44.260Z,996.80
2018-07-17T07:52:38.637Z,996.78
2018-07-17T07:53:38.632Z,996.81
2018-07-17T07:55:33.166Z,996.77
2018-07-17T07:56:33.011Z,996.75
2018-07-17T07:58:27.963Z,996.75
2018-07-17T07:59:27.400Z,996.72
2018-07-17T08:01:21.905Z,996.69
2018-07-17T08:02:21.773Z,996.67
2018-07-17T08:04:16.164Z,996.69
2018-07-17T08:05:16.163Z,996.69
2018-07-17T08:07:10.704Z,996.68
2018-07-17T08:08:10.548Z,996.69
2018-07-17T08:10:04.939Z,996.69
2018-07-17T08:11:04.937Z,996.69
2018-07-17T08:12:59.379Z,996.63
2018-07-17T08:13:59.324Z,996.65
2018-07-17T08:15:53.724Z,996.65
2018-07-17T08:16:53.722Z,996.61
2018-07-17T08:18:48.294Z,996.62
2018-07-17T08:19:48.105Z,996.64
2018-07-17T08:21:42.505Z,996.66
2018-07-17T08:22:42.521Z,996.64
2018-07-17T08:24:38.181Z,996.64
2018-07-17T08:25:38.438Z,996.63
2018-07-17T08:27:31.636Z,996.66
2018-07-17T08:28:31.988Z,996.66
2018-07-17T08:30:26.255Z,996.61
2018-07-17T08:31:26.058Z,996.63
2018-07-17T08:33:20.431Z,996.70
2018-07-17T08:34:20.430Z,996.65
2018-07-17T08:36:15.165Z,996.69
2018-07-17T08:37:15.110Z,996.70
2018-07-17T08:39:09.515Z,996.74
2018-07-17T08:40:09.513Z,996.71
2018-07-17T08:42:03.964Z,996.70
2018-07-17T08:43:03.904Z,996.73
2018-07-17T08:44:58.285Z,996.70
2018-07-17T08:45:58.295Z,996.70
2018-07-17T08:47:52.734Z,996.70
2018-07-17T08:48:52.677Z,996.75
2018-07-17T08:50:47.648Z,996.79
2018-07-17T08:51:47.078Z,996.79
2018-07-17T08:53:41.595Z,996.76
2018-07-17T08:54:41.583Z,996.78
2018-07-17T08:56:35.863Z,996.78
2018-07-17T08:57:35.878Z,996.75
2018-07-17T08:59:30.337Z,996.68
2018-07-17T09:00:30.311Z,996.77
2018-07-17T09:02:24.703Z,996.80
2018-07-17T09:03:24.672Z,996.83
2018-07-17T09:05:19.139Z,996.77
2018-07-17T09:06:19.077Z,996.81
2018-07-17T09:08:13.488Z,996.81
2018-07-17T09:09:13.489Z,996.81
2018-07-17T09:11:07.863Z,996.75
2018-07-17T09:12:07.787Z,996.73
2018-07-17T09:14:02.193Z,996.79
2018-07-17T09:15:02.232Z,996.77
2018-07-17T09:16:56.965Z,996.85
2018-07-17T09:17:56.625Z,996.81
2018-07-17T09:19:50.125Z,996.81
2018-07-17T09:20:50.084Z,996.79
2018-07-17T09:22:44.846Z,996.76
2018-07-17T09:23:44.769Z,996.82
2018-07-17T09:25:39.143Z,996.79
2018-07-17T09:26:39.330Z,996.80
2018-07-17T09:28:33.702Z,996.77
2018-07-17T09:29:33.594Z,996.76
2018-07-17T09:31:27.039Z,996.79
2018-07-17T09:32:27.037Z,996.87
2018-07-17T09:34:26.188Z,996.79
2018-07-17T09:35:25.924Z,996.78
2018-07-17T09:37:20.423Z,996.72
2018-07-17T09:38:20.333Z,996.72
2018-07-17T09:40:20.296Z,996.70
2018-07-17T09:41:18.118Z,996.73
2018-07-17T09:42:18.064Z,996.65
2018-07-17T09:43:18.084Z,996.66
2018-07-17T09:44:18.141Z,996.64
2018-07-17T09:45:18.116Z,996.64
2018-07-17T09:46:18.159Z,996.63
2018-07-17T09:47:18.201Z,996.64
2018-07-17T09:48:18.142Z,996.66
2018-07-17T09:49:18.147Z,996.71
2018-07-17T09:50:18.212Z,996.70
2018-07-17T09:51:18.210Z,996.71
2018-07-17T09:52:18.194Z,996.67
2018-07-17T09:53:18.217Z,996.73
2018-07-17T09:54:18.240Z,996.77
2018-07-17T09:55:18.257Z,996.74
2018-07-17T09:56:18.275Z,996.71
2018-07-17T09:57:18.259Z,996.77
2018-07-17T09:58:18.264Z,996.71
2018-07-17T09:59:18.319Z,996.70
2018-07-17T10:00:18.358Z,996.68
2018-07-17T10:01:18.918Z,996.68
2018-07-17T10:02:18.299Z,996.73
2018-07-17T10:03:18.361Z,996.76
2018-07-17T10:04:21.315Z,996.69
2018-07-17T10:05:18.403Z,996.68
2018-07-17T10:06:18.466Z,996.67
2018-07-17T10:07:18.407Z,996.67
2018-07-17T10:08:18.389Z,996.67
2018-07-17T10:09:18.445Z,996.74
2018-07-17T10:10:18.497Z,996.74
2018-07-17T10:11:18.510Z,996.81
2018-07-17T10:12:18.493Z,996.74
2018-07-17T10:13:18.506Z,996.69
2018-07-17T10:14:18.462Z,996.66
2018-07-17T10:15:18.507Z,996.64
2018-07-17T10:16:18.584Z,996.76
2018-07-17T10:17:18.548Z,996.76
2018-07-17T10:18:18.626Z,996.70
2018-07-17T10:19:18.590Z,996.72
2018-07-17T10:20:18.605Z,996.70
2018-07-17T10:21:18.547Z,996.70
2018-07-17T10:22:18.608Z,996.78
2018-07-17T10:23:18.658Z,996.74
2018-07-17T10:24:18.591Z,996.67
2018-07-17T10:25:18.693Z,996.70
2018-07-17T10:26:18.704Z,996.67
2018-07-17T10:27:18.607Z,996.69
2018-07-17T10:28:21.494Z,996.67
2018-07-17T10:29:18.752Z,996.70
2018-07-17T10:30:18.677Z,996.77
2018-07-17T10:31:18.767Z,996.71
2018-07-17T10:32:19.219Z,996.73
2018-07-17T10:33:20.417Z,996.66
2018-07-17T10:34:18.817Z,996.56
2018-07-17T10:35:18.719Z,996.57
2018-07-17T10:36:18.806Z,996.57
2018-07-17T10:37:19.160Z,996.59
2018-07-17T10:38:18.859Z,996.58
2018-07-17T10:39:18.830Z,996.61
2018-07-17T10:40:18.842Z,996.57
2018-07-17T10:41:18.812Z,996.53
2018-07-17T10:42:18.952Z,996.55
2018-07-17T10:43:18.881Z,996.55
2018-07-17T10:44:18.916Z,996.54
2018-07-17T10:45:18.988Z,996.47
2018-07-17T10:46:18.903Z,996.49
2018-07-17T10:47:18.960Z,996.53
2018-07-17T10:48:18.942Z,996.56
2018-07-17T10:49:18.960Z,996.58
2018-07-17T10:50:18.979Z,996.60
2018-07-17T10:51:19.014Z,996.55
2018-07-17T10:52:19.457Z,996.51
2018-07-17T10:53:19.064Z,996.50
2018-07-17T10:54:19.059Z,996.43
2018-07-17T10:55:19.107Z,996.37
2018-07-17T10:56:19.084Z,996.33
2018-07-17T10:57:19.084Z,996.32
2018-07-17T10:58:19.084Z,996.39
2018-07-17T10:59:19.632Z,996.42
2018-07-17T11:00:19.233Z,996.39
2018-07-17T11:01:19.188Z,996.43
2018-07-17T11:02:19.199Z,996.40
2018-07-17T11:03:19.759Z,996.41
2018-07-17T11:04:19.185Z,996.37
2018-07-17T11:05:19.274Z,996.45
2018-07-17T11:06:19.232Z,996.47
2018-07-17T11:07:19.232Z,996.38
2018-07-17T11:08:19.329Z,996.43
2018-07-17T11:09:19.411Z,996.38
2018-07-17T11:10:19.309Z,996.39
2018-07-17T11:11:19.283Z,996.38
2018-07-17T11:12:19.348Z,996.29
2018-07-17T11:13:19.325Z,996.25
2018-07-17T11:14:19.373Z,996.25
2018-07-17T11:15:19.334Z,996.25
2018-07-17T11:16:19.478Z,996.34
2018-07-17T11:17:19.369Z,996.30
2018-07-17T11:18:19.379Z,996.25
2018-07-17T11:19:19.394Z,996.25
2018-07-17T11:20:19.438Z,996.26
2018-07-17T11:21:19.418Z,996.18
2018-07-17T11:22:19.436Z,996.18
2018-07-17T11:23:19.443Z,996.14
2018-07-17T11:24:19.457Z,996.18
2018-07-17T11:25:19.471Z,996.16
2018-07-17T11:26:19.481Z,996.17
2018-07-17T11:27:19.493Z,996.15
2018-07-17T11:28:19.516Z,996.12
2018-07-17T11:29:19.523Z,996.07
2018-07-17T11:30:19.533Z,996.08
2018-07-17T11:31:19.549Z,996.11
2018-07-17T11:32:19.570Z,996.10
2018-07-17T11:33:19.577Z,996.05
2018-07-17T11:34:20.103Z,996.00
2018-07-17T11:35:19.610Z,996.03
2018-07-17T11:36:19.636Z,996.04
2018-07-17T11:37:19.646Z,996.01
2018-07-17T11:38:19.658Z,996.04
2018-07-17T11:39:19.677Z,996.03
2018-07-17T11:40:19.689Z,996.02
2018-07-17T11:41:19.707Z,995.98
2018-07-17T11:42:19.722Z,995.93
2018-07-17T11:43:19.743Z,995.98
2018-07-17T11:44:19.757Z,996.00
2018-07-17T11:45:19.775Z,995.99
2018-07-17T11:46:19.792Z,995.99
2018-07-17T11:47:19.813Z,995.96
2018-07-17T11:48:19.825Z,995.89
2018-07-17T11:49:19.852Z,995.88
2018-07-17T11:50:19.860Z,995.86
2018-07-17T11:51:19.907Z,995.85
2018-07-17T11:52:19.893Z,995.85
2018-07-17T11:53:19.917Z,995.81
2018-07-17T11:54:19.930Z,995.76
2018-07-17T11:55:19.944Z,995.76
2018-07-17T11:56:19.962Z,995.79
2018-07-17T11:57:19.982Z,995.74
2018-07-17T11:58:19.997Z,995.80
2018-07-17T11:59:20.116Z,995.66
2018-07-17T12:00:20.038Z,995.69
2018-07-17T12:01:20.052Z,995.69
2018-07-17T12:02:20.071Z,995.73
2018-07-17T12:03:20.087Z,995.68
2018-07-17T12:04:20.107Z,995.67
2018-07-17T12:05:20.506Z,995.65
2018-07-17T12:06:20.141Z,995.66
2018-07-17T12:07:20.159Z,995.64
2018-07-17T12:08:20.206Z,995.68
2018-07-17T12:09:20.194Z,995.66
2018-07-17T12:10:20.210Z,995.65
2018-07-17T12:11:20.224Z,995.69
2018-07-17T12:12:20.251Z,995.66
2018-07-17T12:13:20.258Z,995.70
2018-07-17T12:14:20.275Z,995.64
2018-07-17T12:15:20.294Z,995.59
2018-07-17T12:16:20.305Z,995.63
2018-07-17T12:17:20.653Z,995.67
2018-07-17T12:18:20.337Z,995.59
2018-07-17T12:19:20.351Z,995.68
2018-07-17T12:20:20.400Z,995.68
2018-07-17T12:21:20.385Z,995.71
2018-07-17T12:22:20.396Z,995.74
2018-07-17T12:23:20.411Z,995.65
2018-07-17T12:24:20.427Z,995.68
2018-07-17T12:25:20.440Z,995.68
2018-07-17T12:26:20.460Z,995.61
2018-07-17T12:27:20.469Z,995.54
2018-07-17T12:28:20.484Z,995.48
2018-07-17T12:29:20.703Z,995.59
2018-07-17T12:30:20.574Z,995.50
2018-07-17T12:31:20.524Z,995.59
2018-07-17T12:32:20.541Z,995.57
2018-07-17T12:33:20.554Z,995.57
2018-07-17T12:34:20.565Z,995.53
2018-07-17T12:35:20.577Z,995.50
2018-07-17T12:36:20.936Z,995.58
2018-07-17T12:37:20.605Z,995.58
2018-07-17T12:38:20.627Z,995.59
2018-07-17T12:39:20.630Z,995.55
2018-07-17T12:40:20.649Z,995.57
2018-07-17T12:41:20.662Z,995.59
2018-07-17T12:42:20.675Z,995.55
2018-07-17T12:43:20.688Z,995.52
2018-07-17T12:44:20.760Z,995.48
2018-07-17T12:45:20.913Z,995.43
2018-07-17T12:46:20.734Z,995.38
2018-07-17T12:47:20.750Z,995.43
2018-07-17T12:48:20.759Z,995.56
2018-07-17T12:49:20.779Z,995.52
2018-07-17T12:50:20.793Z,995.53
2018-07-17T12:51:20.802Z,995.51
2018-07-17T12:52:20.817Z,995.61
2018-07-17T12:53:20.834Z,995.58
2018-07-17T12:54:20.844Z,995.52
2018-07-17T12:55:20.855Z,995.56
2018-07-17T12:56:20.932Z,995.52
2018-07-17T12:57:20.881Z,995.51
2018-07-17T12:58:20.893Z,995.49
2018-07-17T12:59:20.909Z,995.54
2018-07-17T13:00:20.936Z,995.55
2018-07-17T13:01:20.930Z,995.58
2018-07-17T13:02:20.938Z,995.57
2018-07-17T13:03:20.951Z,995.66
2018-07-17T13:04:20.963Z,995.66
2018-07-17T13:05:21.217Z,995.71
2018-07-17T13:06:21.069Z,995.78
2018-07-17T13:07:21.353Z,995.92
2018-07-17T13:08:21.013Z,996.06
2018-07-17T13:09:21.028Z,996.06
2018-07-17T13:10:21.026Z,995.99
2018-07-17T13:11:21.038Z,996.06
2018-07-17T13:12:21.114Z,996.01
2018-07-17T13:13:21.060Z,996.07
2018-07-17T13:14:21.072Z,996.03
2018-07-17T13:15:21.076Z,996.07
2018-07-17T13:16:21.091Z,996.01
2018-07-17T13:17:21.106Z,995.99
2018-07-17T13:18:21.103Z,995.93
2018-07-17T13:19:21.113Z,995.89
2018-07-17T13:20:21.129Z,995.81
2018-07-17T13:21:21.130Z,995.79
2018-07-17T13:22:21.159Z,995.77
2018-07-17T13:23:21.151Z,995.78
2018-07-17T13:24:21.160Z,995.77
2018-07-17T13:25:21.168Z,995.77
2018-07-17T13:26:21.175Z,995.80
2018-07-17T13:27:21.190Z,995.77
2018-07-17T13:28:21.194Z,995.82
2018-07-17T13:29:21.225Z,995.80
2018-07-17T13:30:21.232Z,995.81
2018-07-17T13:31:21.221Z,995.81
2018-07-17T13:32:21.251Z,995.81
2018-07-17T13:33:21.241Z,995.74
2018-07-17T13:34:21.244Z,995.72
2018-07-17T13:35:21.837Z,995.73
2018-07-17T13:36:21.261Z,995.67
2018-07-17T13:37:21.320Z,995.68
2018-07-17T13:38:21.779Z,995.66
2018-07-17T13:39:21.400Z,995.66
2018-07-17T13:40:21.300Z,995.63
2018-07-17T13:41:21.307Z,995.61
2018-07-17T13:42:21.319Z,995.58
2018-07-17T13:43:21.329Z,995.60
2018-07-17T13:44:21.572Z,995.55
2018-07-17T13:45:21.489Z,995.50
2018-07-17T13:46:21.348Z,995.48
2018-07-17T13:47:21.374Z,995.50
2018-07-17T13:48:21.374Z,995.47
2018-07-17T13:49:21.381Z,995.47
2018-07-17T13:50:22.360Z,995.47
2018-07-17T13:51:21.393Z,995.46
2018-07-17T13:52:21.405Z,995.46
2018-07-17T13:53:21.418Z,995.44
2018-07-17T13:54:21.482Z,995.46
2018-07-17T13:55:21.436Z,995.46
2018-07-17T13:56:21.535Z,995.49
2018-07-17T13:57:21.451Z,995.46
2018-07-17T13:58:21.452Z,995.37
2018-07-17T13:59:21.514Z,995.37
2018-07-17T14:00:21.489Z,995.40
2018-07-17T14:01:21.480Z,995.32
2018-07-17T14:02:21.557Z,995.27
2018-07-17T14:03:21.497Z,995.26
2018-07-17T14:04:21.504Z,995.24
2018-07-17T14:05:21.513Z,995.24
2018-07-17T14:06:21.542Z,995.26
2018-07-17T14:07:21.579Z,995.26
2018-07-17T14:08:21.834Z,995.27
2018-07-17T14:09:22.191Z,995.23
2018-07-17T14:10:21.557Z,995.28
2018-07-17T14:11:21.765Z,995.33
2018-07-17T14:12:21.802Z,995.31
2018-07-17T14:13:21.642Z,995.32
2018-07-17T14:14:21.765Z,995.30
2018-07-17T14:15:21.671Z,995.34
2018-07-17T14:16:21.701Z,995.34
2018-07-17T14:17:21.650Z,995.31
2018-07-17T14:18:21.648Z,995.36
2018-07-17T14:19:21.639Z,995.25
2018-07-17T14:20:21.710Z,995.28
2018-07-17T14:21:21.693Z,995.25
2018-07-17T14:22:21.672Z,995.23
2018-07-17T14:23:21.677Z,995.28
2018-07-17T14:24:21.679Z,995.27
2018-07-17T14:25:21.685Z,995.26
2018-07-17T14:26:21.691Z,995.25
2018-07-17T14:27:21.701Z,995.20
2018-07-17T14:28:21.712Z,995.27
2018-07-17T14:29:21.733Z,995.24
2018-07-17T14:30:21.823Z,995.28
2018-07-17T14:31:21.767Z,995.29
2018-07-17T14:32:21.742Z,995.30
2018-07-17T14:33:21.761Z,995.32
2018-07-17T14:34:21.765Z,995.25
2018-07-17T14:35:21.786Z,995.27
2018-07-17T14:36:21.799Z,995.23
2018-07-17T14:37:21.793Z,995.24
2018-07-17T14:38:21.834Z,995.24
2018-07-17T14:39:21.807Z,995.22
2018-07-17T14:40:22.658Z,995.22
2018-07-17T14:41:21.828Z,995.21
2018-07-17T14:42:21.827Z,995.23
2018-07-17T14:43:21.837Z,995.19
2018-07-17T14:44:22.627Z,995.20
2018-07-17T14:45:21.854Z,995.20
2018-07-17T14:46:21.856Z,995.23
2018-07-17T14:47:21.908Z,995.17
2018-07-17T14:48:21.969Z,995.21
2018-07-17T14:49:21.897Z,995.22
2018-07-17T14:50:21.926Z,995.15
2018-07-17T14:51:21.901Z,995.21
2018-07-17T14:52:21.909Z,995.19
2018-07-17T14:53:21.954Z,995.18
2018-07-17T14:54:22.045Z,995.16
2018-07-17T14:55:21.949Z,995.17
2018-07-17T14:56:21.964Z,995.17
2018-07-17T14:57:21.955Z,995.17
2018-07-17T14:58:21.965Z,995.18
2018-07-17T14:59:21.996Z,995.17
2018-07-17T15:00:21.985Z,995.11
2018-07-17T15:01:22.148Z,995.18
2018-07-17T15:02:22.004Z,995.19
2018-07-17T15:03:22.009Z,995.17
2018-07-17T15:04:22.018Z,995.22
2018-07-17T15:05:22.031Z,995.25
2018-07-17T15:06:22.036Z,995.28
2018-07-17T15:07:22.046Z,995.26
2018-07-17T15:08:22.057Z,995.16
2018-07-17T15:09:22.071Z,995.10
2018-07-17T15:10:22.111Z,995.12
2018-07-17T15:11:23.066Z,995.06
2018-07-17T15:12:22.279Z,995.19
2018-07-17T15:13:22.109Z,995.09
2018-07-17T15:14:22.116Z,995.15
2018-07-17T15:15:22.136Z,995.14
2018-07-17T15:16:22.140Z,995.16
2018-07-17T15:17:22.161Z,995.11
2018-07-17T15:18:22.180Z,995.07
2018-07-17T15:19:22.180Z,995.14
2018-07-17T15:20:22.262Z,995.18
2018-07-17T15:21:22.256Z,995.13
2018-07-17T15:22:22.265Z,995.04
2018-07-17T15:23:22.214Z,995.06
2018-07-17T15:24:22.321Z,995.08
2018-07-17T15:25:22.235Z,995.10
2018-07-17T15:26:22.265Z,995.06
2018-07-17T15:27:22.259Z,995.13
2018-07-17T15:28:22.268Z,995.11
2018-07-17T15:29:22.279Z,995.09
2018-07-17T15:30:22.285Z,995.13